Terminal Aerodrome Forecast
Issued by NWS

Home | Current Version | Previous Version | Text Only | Print | Product List | Glossary On
Versions: 1 2 3 4 5 6 7 8 9 10 11 12 13 14 15 16 17
000
FTUS41 KBGM 251137 AAA
TAFITH
TAF AMD
KITH 251137Z 2512/2612 23005KT P6SM SCT080
     FM251500 27010G16KT P6SM BKN050
     FM260000 24004KT P6SM BKN060
      AMD NOT SKED=

USA.gov is the U.S. government's official web portal to all federal, state and local government web resources and services.